Time;durP1;ratioP1;P1;durP2;ratioP2;P2;SDS_P1;SDS_P2;PMS_P1;PMS_P2;Temp;Humidity;BMP_temperature;BMP_pressure;BME280_temperature;BME280_humidity;BME280_pressure;Samples;Min_cycle;Max_cycle;Signal;HPM_P1;HPM_P2
2023/07/18 00:00:43;;;;;;;0.32;0.32;;;;;;;13.41;100.00;100266.09;7393772;19;20070;-61
2023/07/18 00:03:15;;;;;;;0.25;0.25;;;;;;;13.32;100.00;100266.22;7395889;19;20074;-61
2023/07/18 00:05:42;;;;;;;0.30;0.30;;;;;;;13.30;100.00;100268.72;7392313;19;20003;-61
2023/07/18 00:08:08;;;;;;;0.25;0.25;;;;;;;13.29;100.00;100264.41;7393239;19;20022;-62
2023/07/18 00:10:35;;;;;;;0.57;0.57;;;;;;;13.16;100.00;100255.53;7396766;19;20015;-61
2023/07/18 00:13:02;;;;;;;15.80;0.75;;;;;;;13.16;100.00;100255.53;7395215;19;20007;-61
2023/07/18 00:15:29;;;;;;;0.40;0.40;;;;;;;13.27;100.00;100260.53;7397791;19;20019;-61
2023/07/18 00:17:55;;;;;;;0.32;0.32;;;;;;;13.11;100.00;100266.63;7400681;19;20011;-61
2023/07/18 00:20:23;;;;;;;0.20;0.20;;;;;;;13.02;100.00;100261.84;7405019;19;20015;-61
2023/07/18 00:22:50;;;;;;;1.95;0.60;;;;;;;13.02;100.00;100256.28;7400538;19;20038;-62
2023/07/18 00:25:19;;;;;;;4.03;2.05;;;;;;;13.02;100.00;100256.28;7400883;19;20015;-61
2023/07/18 00:27:46;;;;;;;1.38;0.55;;;;;;;12.95;100.00;100259.44;7399106;19;20059;-66
2023/07/18 00:30:13;;;;;;;0.60;0.60;;;;;;;12.94;100.00;100255.13;7402212;19;20014;-66
2023/07/18 00:32:41;;;;;;;2.95;0.57;;;;;;;12.89;100.00;100255.78;7398740;19;20014;-65
2023/07/18 00:35:08;;;;;;;4.32;0.52;;;;;;;12.84;100.00;100256.47;7397884;19;20018;-65
2023/07/18 00:37:35;;;;;;;0.38;0.38;;;;;;;12.77;100.00;100254.06;7398961;19;20025;-65
2023/07/18 00:40:05;;;;;;;0.40;0.40;;;;;;;12.78;100.00;100252.78;7401621;19;20029;-64
2023/07/18 00:42:31;;;;;;;0.98;0.90;;;;;;;12.76;100.00;100258.09;7399820;19;20460;-65
2023/07/18 00:44:57;;;;;;;0.52;0.52;;;;;;;12.65;100.00;100255.88;7398378;19;20020;-65
2023/07/18 00:47:23;;;;;;;0.43;0.43;;;;;;;12.68;100.00;100259.72;7398318;19;20007;-65
2023/07/18 00:49:50;;;;;;;1.00;0.50;;;;;;;12.66;100.00;100251.84;7400067;19;20014;-65
2023/07/18 00:52:17;;;;;;;1.05;0.98;;;;;;;12.61;100.00;100262.91;7398018;19;20014;-64
2023/07/18 00:54:44;;;;;;;0.40;0.40;;;;;;;12.60;100.00;100256.56;7397105;19;20010;-64
2023/07/18 00:57:11;;;;;;;0.65;0.65;;;;;;;12.64;100.00;100259.16;7397312;19;20499;-64
2023/07/18 00:59:38;;;;;;;1.92;1.00;;;;;;;12.63;100.00;100249.22;7400197;19;20332;-64
2023/07/18 01:02:09;;;;;;;0.68;0.55;;;;;;;12.61;100.00;100254.50;7400163;19;20022;-63
2023/07/18 01:04:36;;;;;;;0.52;0.52;;;;;;;12.63;100.00;100249.22;7398137;19;20470;-63
2023/07/18 01:07:04;;;;;;;0.30;0.30;;;;;;;12.56;100.00;100252.41;7397295;19;20037;-64
2023/07/18 01:09:30;;;;;;;0.65;0.65;;;;;;;12.53;100.00;100242.97;7399785;19;20022;-63
2023/07/18 01:11:58;;;;;;;0.45;0.45;;;;;;;12.51;100.00;100244.69;7397693;19;20360;-63
2023/07/18 01:14:25;;;;;;;1.05;0.70;;;;;;;12.54;100.00;100243.72;7398831;19;20461;-63
2023/07/18 01:16:54;;;;;;;2.15;0.95;;;;;;;12.52;100.00;100235.03;7397231;19;20026;-62
2023/07/18 01:19:21;;;;;;;0.43;0.43;;;;;;;12.50;100.00;100237.53;7398656;19;20006;-62
2023/07/18 01:21:47;;;;;;;0.95;0.90;;;;;;;12.48;100.00;100240.03;7396803;19;20007;-62
2023/07/18 01:24:15;;;;;;;3.75;0.68;;;;;;;12.40;100.00;100245.25;7397789;19;20019;-61
2023/07/18 01:26:42;;;;;;;0.38;0.38;;;;;;;12.39;100.00;100240.16;7396880;19;20470;-64
2023/07/18 01:29:09;;;;;;;1.60;1.00;;;;;;;12.39;100.00;100235.31;7398492;19;20014;-64
2023/07/18 01:31:35;;;;;;;0.63;0.52;;;;;;;12.45;100.00;100229.84;7396921;19;20335;-63
2023/07/18 01:34:04;;;;;;;1.38;0.75;;;;;;;12.50;100.00;100231.94;7397072;19;20038;-62
2023/07/18 01:36:30;;;;;;;2.17;0.70;;;;;;;12.45;100.00;100236.19;7396124;19;20010;-62
2023/07/18 01:38:57;;;;;;;2.25;0.40;;;;;;;12.48;100.00;100228.88;7396982;19;20042;-63
2023/07/18 01:41:23;;;;;;;0.32;0.32;;;;;;;12.47;100.00;100228.13;7397450;19;20017;-63
2023/07/18 01:43:50;;;;;;;0.30;0.30;;;;;;;12.50;100.00;100221.56;7397696;19;20010;-63
2023/07/18 01:46:16;;;;;;;0.45;0.45;;;;;;;12.46;100.00;100225.78;7397459;19;20341;-62
2023/07/18 01:48:42;;;;;;;0.68;0.45;;;;;;;12.47;100.00;100222.53;7396136;19;20006;-62
2023/07/18 01:51:08;;;;;;;0.73;0.50;;;;;;;12.49;100.00;100220.03;7396458;19;20022;-62
2023/07/18 01:53:34;;;;;;;1.98;0.85;;;;;;;12.48;100.00;100212.09;7395962;19;20106;-62
2023/07/18 01:56:00;;;;;;;0.57;0.55;;;;;;;12.51;100.00;100222.34;7396267;19;20018;-62
2023/07/18 01:58:27;;;;;;;1.13;0.47;;;;;;;12.55;100.00;100211.75;7395925;19;20034;-62
2023/07/18 02:00:53;;;;;;;1.60;0.98;;;;;;;12.55;100.00;100209.72;7396139;19;20014;-62
2023/07/18 02:03:20;;;;;;;0.70;0.30;;;;;;;12.52;100.00;100207.09;7398732;19;20091;-62
2023/07/18 02:05:51;;;;;;;0.20;0.20;;;;;;;12.52;100.00;100210.66;7397272;19;20006;-62
2023/07/18 02:08:17;;;;;;;3.47;0.88;;;;;;;12.59;100.00;100212.31;7396862;19;20019;-62
2023/07/18 02:10:43;;;;;;;0.10;0.10;;;;;;;12.58;100.00;100208.75;7399534;19;20010;-62
2023/07/18 02:13:10;;;;;;;0.30;0.30;;;;;;;12.60;100.00;100208.28;7397291;19;20015;-62
2023/07/18 02:15:36;;;;;;;1.38;0.47;;;;;;;12.63;100.00;100207.31;7393403;19;20362;-62
2023/07/18 02:18:04;;;;;;;0.20;0.20;;;;;;;12.71;100.00;100197.31;7395629;19;20038;-62
2023/07/18 02:20:31;;;;;;;0.40;0.40;;;;;;;12.56;100.00;100202.13;7400071;19;20014;-62
2023/07/18 02:23:00;;;;;;;0.57;0.30;;;;;;;12.52;100.00;100202.28;7394505;19;20010;-62
2023/07/18 02:25:26;;;;;;;0.40;0.40;;;;;;;12.58;100.00;100194.03;7397396;19;20007;-62
2023/07/18 02:27:52;;;;;;;0.30;0.30;;;;;;;12.59;100.00;100196.31;7394850;19;20078;-62
2023/07/18 02:30:19;;;;;;;0.32;0.30;;;;;;;12.57;100.00;100187.66;7400049;19;20007;-62
2023/07/18 02:32:49;;;;;;;1.15;0.35;;;;;;;12.60;100.00;100191.53;7396557;19;20019;-62
2023/07/18 02:35:17;;;;;;;0.30;0.30;;;;;;;12.60;100.00;100197.09;7391014;19;20412;-62
2023/07/18 02:37:43;;;;;;;0.30;0.30;;;;;;;12.65;100.00;100190.81;7396965;19;20014;-62
2023/07/18 02:40:11;;;;;;;1.20;0.65;;;;;;;12.66;100.00;100195.19;7397889;19;20070;-62
2023/07/18 02:42:38;;;;;;;0.50;0.50;;;;;;;12.68;100.00;100193.44;7395275;19;20467;-63
2023/07/18 02:45:06;;;;;;;0.85;0.75;;;;;;;12.68;100.00;100195.47;7395514;19;20014;-62
2023/07/18 02:47:32;;;;;;;0.55;0.20;;;;;;;12.61;100.00;100193.81;7394557;19;20014;-62
2023/07/18 02:49:58;;;;;;;0.22;0.22;;;;;;;12.62;100.00;100200.97;7396120;19;20010;-62
2023/07/18 02:52:25;;;;;;;0.63;0.40;;;;;;;12.56;100.00;100193.72;7395815;19;20014;-62
2023/07/18 02:54:51;;;;;;;0.55;0.45;;;;;;;12.55;100.00;100190.16;7393841;19;20060;-63
2023/07/18 02:57:17;;;;;;;0.20;0.10;;;;;;;12.64;100.00;100187.28;7394270;19;20470;-63
2023/07/18 02:59:44;;;;;;;2.00;0.47;;;;;;;12.69;100.00;100183.03;7397563;19;20033;-62
2023/07/18 03:02:11;;;;;;;0.32;0.32;;;;;;;12.75;100.00;100170.72;7393840;19;20021;-63
2023/07/18 03:04:37;;;;;;;0.32;0.30;;;;;;;12.74;100.00;100168.38;7393586;19;20010;-63
2023/07/18 03:07:05;;;;;;;3.85;0.50;;;;;;;12.88;100.00;100167.59;7393817;19;20035;-63
2023/07/18 03:09:34;;;;;;;1.13;0.60;;;;;;;12.94;100.00;100166.44;7395117;19;20089;-62
2023/07/18 03:12:01;;;;;;;0.20;0.20;;;;;;;12.84;100.00;100164.25;7395080;19;20015;-63
2023/07/18 03:14:28;;;;;;;0.50;0.50;;;;;;;12.88;100.00;100156.44;7394518;19;20010;-63
2023/07/18 03:16:54;;;;;;;0.40;0.40;;;;;;;12.89;100.00;100163.53;7393409;19;20023;-63
2023/07/18 03:19:20;;;;;;;0.60;0.60;;;;;;;12.84;100.00;100156.59;7394880;19;20074;-64
2023/07/18 03:21:46;;;;;;;0.45;0.35;;;;;;;12.87;100.00;100147.25;7393508;19;20034;-62
2023/07/18 03:24:12;;;;;;;0.30;0.30;;;;;;;12.83;100.00;100148.72;7395059;19;20010;-63
2023/07/18 03:26:38;;;;;;;0.65;0.65;;;;;;;12.87;100.00;100154.88;7394892;19;20014;-63
2023/07/18 03:29:06;;;;;;;1.05;0.65;;;;;;;12.89;100.00;100153.13;7393542;19;20019;-63
2023/07/18 03:31:35;;;;;;;0.30;0.30;;;;;;;12.88;100.00;100156.44;7393809;19;20474;-62
2023/07/18 03:34:04;;;;;;;1.60;0.38;;;;;;;12.95;100.00;100156.78;7392852;19;20019;-63
2023/07/18 03:36:31;;;;;;;0.40;0.30;;;;;;;13.00;100.00;100160.94;7391817;19;20022;-62
2023/07/18 03:38:57;;;;;;;0.10;0.10;;;;;;;12.99;100.00;100151.00;7393132;19;20011;-63
2023/07/18 03:41:25;;;;;;;0.85;0.35;;;;;;;13.05;100.00;100171.47;7392782;19;20017;-63
2023/07/18 03:43:51;;;;;;;9.85;1.17;;;;;;;13.03;100.00;100159.97;7394747;19;20028;-63
2023/07/18 03:46:18;;;;;;;1.10;0.43;;;;;;;13.11;100.00;100152.75;7392338;19;20048;-63
2023/07/18 03:48:44;;;;;;;0.95;0.30;;;;;;;13.16;100.00;100160.47;7401878;19;20014;-63
2023/07/18 03:51:10;;;;;;;0.20;0.20;;;;;;;13.19;100.00;100158.72;7399929;19;20332;-62
2023/07/18 03:53:36;;;;;;;0.47;0.30;;;;;;;13.10;100.00;100162.41;7401144;19;20343;-62
2023/07/18 03:56:06;;;;;;;0.30;0.30;;;;;;;13.21;100.00;100159.75;7398115;19;20022;-62
2023/07/18 03:58:33;;;;;;;0.47;0.47;;;;;;;13.19;100.00;100162.25;7401614;19;20010;-62
2023/07/18 04:01:06;;;;;;;0.20;0.20;;;;;;;13.14;100.00;100162.97;7405401;19;20328;-62
2023/07/18 04:03:33;;;;;;;0.45;0.40;;;;;;;13.15;100.00;100158.91;7403255;19;20010;-62
2023/07/18 04:05:59;;;;;;;0.82;0.40;;;;;;;13.15;100.00;100169.31;7399829;19;20015;-62
2023/07/18 04:08:25;;;;;;;0.40;0.30;;;;;;;13.15;100.00;100170.09;7399646;19;20014;-63
2023/07/18 04:10:51;;;;;;;4.28;0.82;;;;;;;13.14;100.00;100168.56;7403473;19;20031;-63
2023/07/18 04:13:17;;;;;;;1.25;0.35;;;;;;;13.17;100.00;100164.00;7401357;19;20023;-63
2023/07/18 04:15:44;;;;;;;0.35;0.35;;;;;;;13.12;100.00;100165.47;7397145;19;20335;-63
2023/07/18 04:18:10;;;;;;;0.20;0.20;;;;;;;13.16;100.00;100160.47;7400344;19;20025;-63
2023/07/18 04:20:36;;;;;;;0.50;0.25;;;;;;;13.12;100.00;100168.28;7403066;19;20031;-63
2023/07/18 04:23:02;;;;;;;0.63;0.63;;;;;;;13.18;100.00;100160.75;7401091;19;20007;-62
2023/07/18 04:25:34;;;;;;;0.65;0.65;;;;;;;13.13;100.00;100155.03;7398886;19;20340;-62
2023/07/18 04:28:02;;;;;;;0.50;0.32;;;;;;;13.24;100.00;100155.22;7400413;19;20074;-62
2023/07/18 04:30:28;;;;;;;0.20;0.20;;;;;;;13.20;100.00;100161.03;7403892;19;20023;-62
2023/07/18 04:32:54;;;;;;;0.28;0.17;;;;;;;13.20;100.00;100163.81;7399037;19;20028;-62
2023/07/18 04:35:21;;;;;;;0.60;0.17;;;;;;;13.19;100.00;100164.31;7399051;19;20033;-62
2023/07/18 04:37:48;;;;;;;0.10;0.10;;;;;;;13.25;100.00;100168.72;7400019;19;20043;-63
2023/07/18 04:40:15;;;;;;;1.55;0.65;;;;;;;13.31;100.00;100172.38;7401093;19;20347;-63
2023/07/18 04:42:41;;;;;;;0.32;0.32;;;;;;;13.40;100.00;100175.06;7399206;19;20019;-63
2023/07/18 04:45:07;;;;;;;0.38;0.38;;;;;;;13.38;100.00;100169.16;7399505;19;20019;-62
2023/07/18 04:47:33;;;;;;;1.33;0.40;;;;;;;13.44;100.00;100170.03;7399304;19;20007;-62
2023/07/18 04:49:59;;;;;;;0.68;0.45;;;;;;;13.49;100.00;100177.69;7400325;19;20014;-63
2023/07/18 04:52:26;;;;;;;1.58;0.88;;;;;;;13.47;100.00;100171.06;7399110;19;20008;-63
2023/07/18 04:54:52;;;;;;;0.90;0.75;;;;;;;13.50;100.00;100167.28;7398728;19;20018;-63
2023/07/18 04:57:18;;;;;;;0.30;0.30;;;;;;;13.52;100.00;100173.16;7398167;19;20015;-63
2023/07/18 04:59:44;;;;;;;0.50;0.20;;;;;;;13.62;100.00;100164.13;7399597;19;20026;-62
2023/07/18 05:02:10;;;;;;;0.30;0.25;;;;;;;13.66;100.00;100164.69;7398408;19;20007;-62
2023/07/18 05:04:36;;;;;;;1.80;1.08;;;;;;;13.64;100.00;100167.22;7400053;19;20467;-62
2023/07/18 05:07:03;;;;;;;0.88;0.82;;;;;;;13.65;100.00;100165.19;7398020;19;20010;-63
2023/07/18 05:09:30;;;;;;;0.20;0.20;;;;;;;13.66;100.00;100159.09;7400291;19;20021;-63
2023/07/18 05:11:56;;;;;;;0.20;0.10;;;;;;;13.78;100.00;100153.66;7397004;19;20459;-63
2023/07/18 05:14:22;;;;;;;0.30;0.30;;;;;;;13.83;100.00;100152.97;7397412;19;20097;-63
2023/07/18 05:16:49;;;;;;;0.77;0.30;;;;;;;13.87;100.00;100157.09;7399128;19;20017;-62
2023/07/18 05:19:15;;;;;;;0.95;0.30;;;;;;;13.76;100.00;100158.97;7399703;19;20022;-63
2023/07/18 05:21:41;;;;;;;0.20;0.20;;;;;;;13.86;100.00;100158.34;7398562;19;20015;-63
2023/07/18 05:24:07;;;;;;;1.50;0.75;;;;;;;13.88;100.00;100152.25;7397351;19;20006;-63
2023/07/18 05:26:33;;;;;;;0.10;0.10;;;;;;;13.87;100.00;100147.91;7398859;19;20066;-63
2023/07/18 05:28:59;;;;;;;0.20;0.20;;;;;;;13.97;100.00;100149.31;7396803;19;20025;-63
2023/07/18 05:31:26;;;;;;;1.38;0.30;;;;;;;13.99;100.00;100141.94;7398160;19;20010;-63
2023/07/18 05:33:52;;;;;;;0.55;0.55;;;;;;;14.10;100.00;100142.06;7398765;19;20015;-63
2023/07/18 05:36:18;;;;;;;0.17;0.15;;;;;;;14.07;100.00;100143.06;7396120;19;20018;-63
2023/07/18 05:38:45;;;;;;;2.05;0.20;;;;;;;14.24;100.00;100140.44;7396818;19;20078;-63
2023/07/18 05:41:11;;;;;;;0.50;0.50;;;;;;;14.23;100.00;100138.88;7401333;19;20011;-64
2023/07/18 05:43:37;;;;;;;0.85;0.50;;;;;;;14.27;100.00;100136.66;7398076;19;20092;-64
2023/07/18 05:46:03;;;;;;;0.10;0.10;;;;;;;14.32;100.00;100141.56;7397505;19;20544;-63
2023/07/18 05:48:30;;;;;;;0.22;0.22;;;;;;;14.36;100.00;100140.09;7398095;19;20011;-63
2023/07/18 05:50:56;;;;;;;0.15;0.15;;;;;;;14.43;100.00;100124.84;7401327;19;20010;-64
2023/07/18 05:53:22;;;;;;;2.25;0.85;;;;;;;14.53;100.00;100128.28;7396644;19;20019;-63
2023/07/18 05:55:49;;;;;;;0.35;0.32;;;;;;;14.41;100.00;100138.59;7397052;19;20019;-64
2023/07/18 05:58:15;;;;;;;1.20;0.30;;;;;;;14.65;100.00;100130.66;7397236;19;20354;-64
2023/07/18 06:00:42;;;;;;;6.60;0.55;;;;;;;14.79;100.00;100126.94;7400429;19;20010;-63
2023/07/18 06:03:08;;;;;;;0.35;0.20;;;;;;;14.85;100.00;100119.38;7399924;19;20007;-64
2023/07/18 06:05:34;;;;;;;0.28;0.28;;;;;;;14.82;100.00;100123.16;7397377;19;20013;-64
2023/07/18 06:08:00;;;;;;;1.10;0.43;;;;;;;14.93;100.00;100123.25;7397047;19;20026;-64
2023/07/18 06:10:27;;;;;;;0.47;0.30;;;;;;;15.01;100.00;100121.50;7400202;19;20014;-64
2023/07/18 06:12:53;;;;;;;0.65;0.40;;;;;;;15.13;100.00;100125.94;7397627;19;20070;-64
2023/07/18 06:15:20;;;;;;;1.52;0.57;;;;;;;15.23;100.00;100125.72;7396254;19;20373;-64
2023/07/18 06:17:46;;;;;;;0.20;0.20;;;;;;;15.29;100.00;100124.47;7397340;19;20048;-64
2023/07/18 06:20:12;;;;;;;0.30;0.30;;;;;;;15.33;100.00;100115.84;7397229;19;20023;-64
2023/07/18 06:22:39;;;;;;;0.75;0.30;;;;;;;15.39;100.00;100111.81;7394795;19;20027;-64
2023/07/18 06:25:06;;;;;;;1.38;0.40;;;;;;;15.44;100.00;100110.34;7396587;19;20022;-64
2023/07/18 06:27:32;;;;;;;2.38;0.30;;;;;;;15.48;100.00;100116.47;7396270;19;20011;-64
2023/07/18 06:29:59;;;;;;;0.28;0.25;;;;;;;15.60;100.00;100118.03;7398732;19;20007;-64
2023/07/18 06:32:25;;;;;;;1.48;0.32;;;;;;;15.66;100.00;100116.78;7396757;19;20014;-64
2023/07/18 06:34:51;;;;;;;0.50;0.45;;;;;;;15.71;100.00;100118.88;7393824;19;20405;-64
2023/07/18 06:37:17;;;;;;;0.98;0.85;;;;;;;15.76;100.00;100120.94;7394778;19;20006;-65
2023/07/18 06:39:43;;;;;;;1.83;0.17;;;;;;;15.80;100.00;100126.31;7397422;19;20025;-65
2023/07/18 06:42:10;;;;;;;0.30;0.28;;;;;;;15.85;100.00;100122.75;7395795;19;20343;-65
2023/07/18 06:44:36;;;;;;;0.25;0.15;;;;;;;15.95;100.00;100112.81;7395423;19;20421;-65
2023/07/18 06:47:03;;;;;;;2.72;0.77;;;;;;;15.96;100.00;100122.78;7395528;19;20036;-65
2023/07/18 06:49:29;;;;;;;0.10;0.10;;;;;;;16.01;100.00;100119.22;7396450;19;20015;-65
2023/07/18 06:51:55;;;;;;;1.40;0.30;;;;;;;16.03;100.00;100111.06;7395822;19;20466;-65
2023/07/18 06:54:21;;;;;;;1.13;0.30;;;;;;;16.04;100.00;100118.22;7395872;19;20018;-65
2023/07/18 06:56:47;;;;;;;1.48;0.60;;;;;;;16.03;100.00;100113.84;7395922;19;20010;-64
2023/07/18 06:59:13;;;;;;;0.20;0.20;;;;;;;16.15;100.00;100112.63;7396409;19;20471;-64
2023/07/18 07:01:39;;;;;;;7.43;0.80;;;;;;;16.19;100.00;100107.53;7395209;19;20469;-64
2023/07/18 07:04:06;;;;;;;0.43;0.30;;;;;;;16.23;100.00;100118.50;7399816;19;20070;-65
2023/07/18 07:06:32;;;;;;;0.10;0.00;;;;;;;16.26;100.00;100118.28;7395750;19;20011;-64
2023/07/18 07:08:58;;;;;;;0.77;0.40;;;;;;;16.28;100.00;100126.97;7395334;19;20014;-64
2023/07/18 07:11:27;;;;;;;0.28;0.22;;;;;;;16.34;100.00;100138.97;7394037;19;20095;-64
2023/07/18 07:13:53;;;;;;;4.40;0.40;;;;;;;16.44;100.00;100137.44;7395493;19;20014;-64
2023/07/18 07:16:19;;;;;;;0.35;0.20;;;;;;;16.59;100.00;100121.13;7392897;19;20015;-65
2023/07/18 07:18:49;;;;;;;0.20;0.20;;;;;;;16.72;100.00;100126.25;7394784;19;20019;-65
2023/07/18 07:21:15;;;;;;;0.70;0.20;;;;;;;16.59;100.00;100123.94;7394586;19;20455;-65
2023/07/18 07:23:41;;;;;;;0.77;0.40;;;;;;;16.63;100.00;100123.72;7394294;19;20010;-64
2023/07/18 07:26:08;;;;;;;0.90;0.80;;;;;;;16.74;100.00;100122.94;7395120;19;20045;-65
2023/07/18 07:28:35;;;;;;;2.05;0.17;;;;;;;16.87;100.00;100126.75;7395334;19;20011;-65
2023/07/18 07:31:05;;;;;;;0.57;0.43;;;;;;;17.01;100.00;100125.72;7394378;19;20353;-65
2023/07/18 07:33:31;;;;;;;2.42;0.52;;;;;;;17.13;100.00;100143.38;7399851;19;20013;-64
2023/07/18 07:35:58;;;;;;;0.60;0.22;;;;;;;17.26;100.00;100135.16;7392878;19;20354;-65
2023/07/18 07:38:25;;;;;;;1.05;0.40;;;;;;;17.52;100.00;100124.34;7394026;19;20015;-65
2023/07/18 07:40:51;;;;;;;1.05;0.30;;;;;;;17.57;100.00;100132.03;7393331;19;20024;-64
2023/07/18 07:43:17;;;;;;;0.20;0.17;;;;;;;17.60;100.00;100121.78;7397088;19;20020;-64
2023/07/18 07:45:43;;;;;;;0.10;0.10;;;;;;;17.82;100.00;100121.69;7394467;19;20048;-64
2023/07/18 07:48:09;;;;;;;0.28;0.25;;;;;;;17.86;100.00;100120.16;7392829;19;20021;-64
2023/07/18 07:50:35;;;;;;;1.60;0.70;;;;;;;17.96;100.00;100112.91;7394135;19;20018;-64
2023/07/18 07:53:01;;;;;;;2.33;0.32;;;;;;;17.87;100.00;100101.94;7393481;19;20455;-65
2023/07/18 07:55:30;;;;;;;0.90;0.30;;;;;;;17.98;100.00;100103.94;7397061;19;20010;-65
2023/07/18 07:57:56;;;;;;;1.05;0.45;;;;;;;18.05;100.00;100101.34;7393679;19;20400;-65
2023/07/18 08:00:23;;;;;;;0.55;0.40;;;;;;;18.11;100.00;100107.69;7393751;19;20081;-64
2023/07/18 08:02:49;;;;;;;3.03;0.55;;;;;;;18.13;100.00;100099.47;7396112;19;20048;-64
2023/07/18 08:05:15;;;;;;;7.97;0.25;;;;;;;18.17;100.00;100105.59;7393627;19;20022;-65
2023/07/18 08:07:42;;;;;;;0.22;0.17;;;;;;;18.26;100.00;100100.97;7396807;19;20011;-64
2023/07/18 08:10:09;;;;;;;2.22;0.20;;;;;;;18.35;100.00;100103.44;7393768;19;20015;-65
2023/07/18 08:12:35;;;;;;;0.70;0.28;;;;;;;18.43;100.00;100099.53;7393341;19;20011;-64
2023/07/18 08:15:01;;;;;;;0.20;0.20;;;;;;;18.37;100.00;100106.50;7392497;19;20014;-65
2023/07/18 08:17:27;;;;;;;1.17;0.20;;;;;;;18.34;100.00;100102.69;7395633;19;20018;-65
2023/07/18 08:19:54;;;;;;;0.85;0.35;;;;;;;18.24;100.00;100104.28;7393404;19;20034;-65
2023/07/18 08:22:20;;;;;;;2.40;0.30;;;;;;;18.21;100.00;100110.22;7393163;19;20022;-64
2023/07/18 08:24:46;;;;;;;1.52;0.25;;;;;;;18.23;100.00;100102.00;7391660;19;20381;-65
2023/07/18 08:27:12;;;;;;;0.65;0.28;;;;;;;18.25;100.00;100105.06;7392191;19;20066;-65
2023/07/18 08:29:41;;;;;;;3.60;0.40;;;;;;;18.31;100.00;100100.16;7395401;19;20496;-66
2023/07/18 08:32:08;;;;;;;0.43;0.13;;;;;;;18.44;100.00;100105.94;7391650;19;20481;-66
2023/07/18 08:34:37;;;;;;;2.50;0.50;;;;;;;18.43;100.00;100101.59;7397049;19;20416;-66
2023/07/18 08:37:05;;;;;;;0.43;0.20;;;;;;;18.46;100.00;100106.22;7400669;19;20031;-65
2023/07/18 08:39:31;;;;;;;1.55;0.10;;;;;;;18.39;100.00;100103.91;7399993;19;20355;-66
2023/07/18 08:41:59;;;;;;;5.57;1.42;;;;;;;18.35;100.00;100097.81;7401711;19;20023;-66
2023/07/18 08:44:26;;;;;;;0.45;0.10;;;;;;;18.24;100.00;100097.88;7399255;19;20420;-66
2023/07/18 08:46:52;;;;;;;1.55;0.65;;;;;;;18.24;100.00;100086.59;7400317;19;20019;-66
2023/07/18 08:49:21;;;;;;;0.90;0.65;;;;;;;18.27;100.00;100079.94;7400127;19;20343;-66
2023/07/18 08:51:48;;;;;;;2.88;0.52;;;;;;;18.30;100.00;100084.53;7399624;19;20364;-66
2023/07/18 08:54:14;;;;;;;1.85;0.20;;;;;;;18.30;100.00;100085.28;7403265;19;20018;-66
2023/07/18 08:56:42;;;;;;;3.55;0.30;;;;;;;18.29;100.00;100089.41;7397283;19;20015;-66
2023/07/18 08:59:09;;;;;;;0.63;0.30;;;;;;;18.38;100.00;100093.94;7399766;19;20006;-66
2023/07/18 09:01:35;;;;;;;0.80;0.45;;;;;;;18.33;100.00;100080.66;7400160;19;20011;-66
2023/07/18 09:04:01;;;;;;;0.50;0.32;;;;;;;18.34;100.00;100074.50;7403390;19;20011;-66
2023/07/18 09:06:28;;;;;;;0.65;0.40;;;;;;;18.35;100.00;100080.88;7403028;19;20018;-66
2023/07/18 09:08:55;;;;;;;0.20;0.10;;;;;;;18.33;100.00;100083.47;7399886;19;20038;-65
2023/07/18 09:11:21;;;;;;;0.43;0.13;;;;;;;18.46;100.00;100086.47;7399028;19;20014;-65
2023/07/18 09:13:48;;;;;;;0.73;0.20;;;;;;;18.40;100.00;100094.19;7399772;19;20025;-66
2023/07/18 09:16:21;;;;;;;0.20;0.10;;;;;;;18.42;100.00;100088.78;7398636;19;20337;-66
2023/07/18 09:18:49;;;;;;;0.20;0.20;;;;;;;18.41;100.00;100090.09;7399127;19;20014;-66
2023/07/18 09:21:16;;;;;;;0.40;0.30;;;;;;;18.54;100.00;100081.78;7399023;19;20013;-67
2023/07/18 09:23:44;;;;;;;1.75;0.43;;;;;;;18.61;100.00;100078.41;7398201;19;20018;-67
2023/07/18 09:26:28;;;;;;;2.85;0.73;;;;;;;18.64;100.00;100085.81;7397590;19;20031;-67
2023/07/18 09:28:54;;;;;;;1.00;0.63;;;;;;;18.62;100.00;100082.75;7401700;19;20030;-66
2023/07/18 09:31:25;;;;;;;0.30;0.28;;;;;;;18.69;100.00;100082.19;7398078;19;20011;-67
2023/07/18 09:33:53;;;;;;;0.65;0.20;;;;;;;18.67;100.00;100073.47;7396653;19;20038;-66
2023/07/18 09:36:22;;;;;;;6.90;0.28;;;;;;;18.72;100.00;100070.63;7395979;19;20483;-67
2023/07/18 09:38:49;;;;;;;2.30;0.13;;;;;;;18.82;100.00;100076.66;7397549;19;20022;-66
2023/07/18 09:41:16;;;;;;;2.78;0.10;;;;;;;18.85;100.00;100073.56;7402159;19;20413;-66
2023/07/18 09:43:43;;;;;;;16.85;0.98;;;;;;;18.97;100.00;100065.78;7397806;19;20056;-61
2023/07/18 09:46:14;;;;;;;2.75;0.32;;;;;;;19.04;100.00;100062.34;7397058;19;20448;-62
2023/07/18 09:48:43;;;;;;;0.90;0.20;;;;;;;19.15;100.00;100055.81;7398006;19;20011;-62
2023/07/18 09:51:13;;;;;;;0.20;0.17;;;;;;;19.27;100.00;100066.47;7399886;19;20014;-62
2023/07/18 09:53:44;;;;;;;0.75;0.00;;;;;;;19.31;100.00;100058.47;7396962;19;20018;-62
2023/07/18 09:56:14;;;;;;;2.65;0.57;;;;;;;19.38;100.00;100068.44;7395221;19;20028;-62
2023/07/18 09:58:42;;;;;;;0.52;0.05;;;;;;;19.39;100.00;100067.91;7396014;19;20011;-62
2023/07/18 10:01:11;;;;;;;1.23;0.30;;;;;;;19.37;100.00;100066.88;7401452;19;20023;-61
2023/07/18 10:03:39;;;;;;;0.63;0.20;;;;;;;19.40;100.00;100060.19;7399734;19;20034;-61
2023/07/18 10:06:13;;;;;;;0.10;0.03;;;;;;;19.39;100.00;100059.41;7395560;19;20014;-65
2023/07/18 10:08:40;;;;;;;1.20;0.30;;;;;;;19.43;100.00;100054.22;7397272;19;20526;-65
2023/07/18 10:11:08;;;;;;;0.40;0.25;;;;;;;19.49;100.00;100060.56;7400268;19;20037;-64
2023/07/18 10:13:56;;;;;;;0.20;0.10;;;;;;;19.34;100.00;100057.41;7397265;19;20469;-65
2023/07/18 10:16:26;;;;;;;5.97;0.30;;;;;;;19.25;100.00;100060.56;7395242;19;20482;-65
2023/07/18 10:18:53;;;;;;;;;;;;;;;19.17;100.00;100053.22;7397122;19;20345;-65
2023/07/18 10:21:33;;;;;;;0.45;0.30;;;;;;;19.11;100.00;100058.94;7400520;19;19950;-65
2023/07/18 10:24:21;;;;;;;1.00;0.45;;;;;;;19.03;100.00;100055.19;7396607;19;20007;-66
2023/07/18 10:26:50;;;;;;;1.00;0.13;;;;;;;18.96;100.00;100055.75;7396217;19;20010;-65
2023/07/18 10:29:16;;;;;;;1.60;0.32;;;;;;;18.89;100.00;100056.34;7396669;19;20398;-65
2023/07/18 10:31:42;;;;;;;0.63;0.17;;;;;;;18.74;100.00;100058.78;7399471;19;20014;-65
2023/07/18 10:34:15;;;;;;;0.10;0.10;;;;;;;18.62;100.00;100054.56;7395298;19;20014;-65
2023/07/18 10:36:53;;;;;;;3.30;0.20;;;;;;;18.56;100.00;100053.84;7393292;19;20014;-65
2023/07/18 10:39:19;;;;;;;1.40;0.40;;;;;;;18.45;100.00;100051.13;7397338;19;20047;-66
2023/07/18 10:41:45;;;;;;;0.25;0.25;;;;;;;18.39;100.00;100047.53;7396304;19;20010;-66
2023/07/18 10:44:14;;;;;;;0.20;0.15;;;;;;;18.34;100.00;100051.94;7396538;19;20018;-66
2023/07/18 10:46:41;;;;;;;0.65;0.40;;;;;;;18.25;100.00;100048.66;7395613;19;20324;-66
2023/07/18 10:49:07;;;;;;;0.15;0.15;;;;;;;18.18;100.00;100053.59;7396552;19;20010;-67
2023/07/18 10:51:34;;;;;;;0.10;0.10;;;;;;;18.14;100.00;100050.28;7398960;19;20156;-67
2023/07/18 10:54:01;;;;;;;1.50;0.20;;;;;;;18.12;100.00;100041.59;7396417;19;20011;-67
2023/07/18 10:56:27;;;;;;;0.38;0.10;;;;;;;18.14;100.00;100038.25;7390092;19;20011;-62
2023/07/18 10:58:56;;;;;;;0.30;0.10;;;;;;;18.14;100.00;100043.88;7395055;19;20006;-61
2023/07/18 11:01:25;;;;;;;0.45;0.03;;;;;;;18.32;100.00;100043.22;7397717;19;20014;-62
2023/07/18 11:03:51;;;;;;;2.25;0.20;;;;;;;18.45;100.00;100046.22;7399326;19;20018;-62
2023/07/18 11:06:18;;;;;;;1.23;0.28;;;;;;;18.70;100.00;100052.69;7395953;19;20033;-61
2023/07/18 11:08:47;;;;;;;0.10;0.10;;;;;;;18.82;100.00;100042.81;7395129;19;20007;-61
2023/07/18 11:11:18;;;;;;;14.43;0.63;;;;;;;18.93;100.00;100045.53;7398829;19;20022;-61
2023/07/18 11:13:44;;;;;;;4.43;0.25;;;;;;;19.08;100.00;100051.53;7393356;19;20021;-61
2023/07/18 11:16:15;;;;;;;2.45;0.43;;;;;;;19.11;100.00;100044.06;7393504;19;20042;-62